Virtual LH

Virtual LH. There's no better way to fly
Since 2013.



AIRPORT MAP

METAR AND TAF INFORMATION

METAR FOR LTCG
ADDS - METARS form results

(2333 UTC 22 November 2019)
Data provider http://aviationweather.gov/metar/data/
 
METAR text: LTCG 222320Z 16006KT CAVOK 12/05 Q1020 NOSIG RMK RWY29 16003KT
Conditions at: LTCG (TRABZON , TR) observed 2320 UTC 22 November 2019
Temperature: 12.0°C (54°F)
Dewpoint: 5.0°C (41°F) [RH = 62%]
Pressure (altimeter): 30.12 inches Hg (1020.0 mb)
Winds: from the SSE (160 degrees) at 7 MPH (6 knots; 3.1 m/s)
Visibility: 6 or more miles (10+ km)
Ceiling: ceiling and visibility are OK
Clouds: unknown
Weather: no significant weather observed at this time

METAR text: LTCG 222250Z 22007KT CAVOK 13/05 Q1020 NOSIG RMK RWY29 00000KT
Conditions at: LTCG (TRABZON , TR) observed 2250 UTC 22 November 2019
Temperature: 13.0°C (55°F)
Dewpoint: 5.0°C (41°F) [RH = 58%]
Pressure (altimeter): 30.12 inches Hg (1020.0 mb)
Winds: from the SW (220 degrees) at 8 MPH (7 knots; 3.6 m/s)
Visibility: 6 or more miles (10+ km)
Ceiling: ceiling and visibility are OK
Clouds: unknown
Weather: no significant weather observed at this time

Forecast for: LTCG (TRABZON , TR)
Text: TAF LTCG 222240Z 2300/2324 VRB02KT CAVOK
Forecast period: 0000 to 1000 UTC 23 November 2019
Forecast type: FROM: standard forecast or significant change
Winds: variable direction winds at 2 MPH (2 knots; 1.0 m/s)
Visibility: 6 or more miles 10+ km)
Ceiling: unknown
Clouds: missing
Weather: NSW  (no significant weather)
Text: BECMG 2310/2313 SCT035
Forecast period: 1000 UTC 23 November 2019 to 0000 UTC 24 November 2019
Forecast type: BECOMING: Conditions expected to become as follows by 1300 UTC 23 November 2019
Winds: variable direction winds at 2 MPH (2 knots; 1.0 m/s)
Visibility: 6 or more miles 10+ km)
Ceiling: at least 12,000 feet AGL
Clouds: scattered clouds at 3500 feet AGL
Weather: NSW  (no significant weather)

RUNWAY INFORMATION

Runway 11 Runway length 8661 ft Runway width 148 ft
Runway elevation 104 ft Runway displaced threshold 0 ft Runway heading 112
Runway 29 Runway length 8661 ft Runway width 148 ft
Runway elevation 95 ft Runway displaced threshold 0 ft Runway heading 292

AIRPORT FREQUENCIES

Type APP Name APP Frequency 120.1 MHZ
Type GND Name GND Frequency 121.9 MHZ
Type TWR Name TWR Frequency 120.1 MHZ

AIRPORT NEAR NAVIGATION AIDS

Type NDB Name Trabzon Frequency 392 KHZ
Type VOR-DME Name Trabzon Frequency 114900 KHZ
Type NDB Name Trabzon Frequency 371 KHZ